createdAt,value
2019-01-10T00:00:23.357Z,0.50
2019-01-10T00:02:52.009Z,0.50
2019-01-10T00:05:21.017Z,0.50
2019-01-10T00:07:49.406Z,0.50
2019-01-10T00:10:18.267Z,0.50
2019-01-10T00:12:46.725Z,0.50
2019-01-10T00:15:18.787Z,0.50
2019-01-10T00:17:47.473Z,0.60
2019-01-10T00:20:17.093Z,0.60
2019-01-10T00:22:45.719Z,0.60
2019-01-10T00:25:14.942Z,0.60
2019-01-10T00:27:43.399Z,0.60
2019-01-10T00:30:14.810Z,0.60
2019-01-10T00:32:43.211Z,0.70
2019-01-10T00:35:12.029Z,0.70
2019-01-10T00:37:40.422Z,0.70
2019-01-10T00:40:11.898Z,0.70
2019-01-10T00:42:48.819Z,0.70
2019-01-10T00:45:15.455Z,0.70
2019-01-10T00:47:43.913Z,0.70
2019-01-10T00:50:14.752Z,0.70
2019-01-10T00:52:43.145Z,0.70
2019-01-10T00:55:11.594Z,0.70
2019-01-10T00:57:41.048Z,0.70
2019-01-10T01:00:12.517Z,0.70
2019-01-10T01:02:40.922Z,0.70
2019-01-10T01:05:11.846Z,0.70
2019-01-10T01:07:40.297Z,0.70
2019-01-10T01:10:20.199Z,0.70
2019-01-10T01:12:58.040Z,0.60
2019-01-10T01:15:19.445Z,0.60
2019-01-10T01:17:47.918Z,0.60
2019-01-10T01:20:24.038Z,0.60
2019-01-10T01:22:52.578Z,0.60
2019-01-10T01:25:21.106Z,0.60
2019-01-10T01:27:49.571Z,0.60
2019-01-10T01:30:23.530Z,0.50
2019-01-10T01:32:52.013Z,0.60
2019-01-10T01:35:21.749Z,0.60
2019-01-10T01:37:50.417Z,0.60
2019-01-10T01:40:20.478Z,0.60
2019-01-10T01:42:49.506Z,0.60
2019-01-10T01:45:19.258Z,0.60
2019-01-10T01:47:48.305Z,0.60
2019-01-10T01:50:19.759Z,0.70
2019-01-10T01:52:48.137Z,0.70
2019-01-10T01:55:16.864Z,0.70
2019-01-10T01:57:45.242Z,0.70
2019-01-10T02:00:16.270Z,0.70
2019-01-10T02:02:44.674Z,0.70
2019-01-10T02:05:13.414Z,0.70
2019-01-10T02:07:41.806Z,0.70
2019-01-10T02:10:15.690Z,0.70
2019-01-10T02:12:44.077Z,0.70
2019-01-10T02:15:14.250Z,0.70
2019-01-10T02:17:48.858Z,0.70
2019-01-10T02:20:16.401Z,0.70
2019-01-10T02:22:45.228Z,0.70
2019-01-10T02:25:15.685Z,0.70
2019-01-10T02:27:44.077Z,0.80
2019-01-10T02:30:21.191Z,0.80
2019-01-10T02:32:49.788Z,0.80
2019-01-10T02:35:18.661Z,0.80
2019-01-10T02:37:47.114Z,0.80
2019-01-10T02:40:15.529Z,0.80
2019-01-10T02:42:44.078Z,0.80
2019-01-10T02:45:16.663Z,0.80
2019-01-10T02:47:45.345Z,0.80
2019-01-10T02:50:21.450Z,0.80
2019-01-10T02:52:49.923Z,0.80
2019-01-10T02:55:18.325Z,0.80
2019-01-10T02:57:46.798Z,0.80
2019-01-10T03:00:20.815Z,0.80
2019-01-10T03:02:49.569Z,0.80
2019-01-10T03:05:18.391Z,0.80
2019-01-10T03:07:46.771Z,0.80
2019-01-10T03:10:18.205Z,0.80
2019-01-10T03:12:46.585Z,0.80
2019-01-10T03:15:15.125Z,0.80
2019-01-10T03:17:43.507Z,0.80
2019-01-10T03:20:14.965Z,0.70
2019-01-10T03:22:43.375Z,0.80
2019-01-10T03:25:11.833Z,0.70
2019-01-10T03:27:40.230Z,0.70
2019-01-10T03:30:17.059Z,0.80
2019-01-10T03:32:45.462Z,0.80
2019-01-10T03:35:14.197Z,0.80
2019-01-10T03:38:01.995Z,0.80
2019-01-10T03:40:30.597Z,0.80
2019-01-10T03:42:58.985Z,0.80
2019-01-10T03:45:27.382Z,0.80
2019-01-10T03:47:55.814Z,0.80
2019-01-10T03:50:24.214Z,0.80
2019-01-10T03:52:52.613Z,0.80
2019-01-10T03:55:21.007Z,0.80
2019-01-10T03:57:49.383Z,0.90
2019-01-10T04:00:20.327Z,0.80
2019-01-10T04:02:48.722Z,0.80
2019-01-10T04:05:17.735Z,0.80
2019-01-10T04:07:46.191Z,0.90
2019-01-10T04:10:16.116Z,0.90
2019-01-10T04:12:44.509Z,0.90
2019-01-10T04:15:14.614Z,0.90
2019-01-10T04:17:43.279Z,0.90
2019-01-10T04:20:16.413Z,0.90
2019-01-10T04:22:44.939Z,0.80
2019-01-10T04:25:14.498Z,0.90
2019-01-10T04:27:42.895Z,0.90
2019-01-10T04:30:16.651Z,0.90
2019-01-10T04:32:45.183Z,0.90
2019-01-10T04:35:13.752Z,0.90
2019-01-10T04:37:42.149Z,0.90
2019-01-10T04:40:16.457Z,0.90
2019-01-10T04:42:45.073Z,0.90
2019-01-10T04:45:14.212Z,0.90
2019-01-10T04:47:42.598Z,0.90
2019-01-10T04:50:13.242Z,0.90
2019-01-10T04:52:41.640Z,0.90
2019-01-10T04:55:11.371Z,0.90
2019-01-10T04:57:39.773Z,0.90
2019-01-10T05:00:13.930Z,0.90
2019-01-10T05:02:42.333Z,0.90
2019-01-10T05:05:30.057Z,0.90
2019-01-10T05:07:58.457Z,0.90
2019-01-10T05:10:26.855Z,0.90
2019-01-10T05:13:14.595Z,0.90
2019-01-10T05:15:42.992Z,0.90
2019-01-10T05:18:11.390Z,0.90
2019-01-10T05:20:39.777Z,0.90
2019-01-10T05:23:08.194Z,0.90
2019-01-10T05:25:36.582Z,0.90
2019-01-10T05:28:24.341Z,0.90
2019-01-10T05:30:52.724Z,0.90
2019-01-10T05:33:21.110Z,0.90
2019-01-10T05:35:49.844Z,0.90
2019-01-10T05:38:18.251Z,0.90
2019-01-10T05:40:46.644Z,0.90
2019-01-10T05:43:15.032Z,0.90
2019-01-10T05:45:43.441Z,0.90
2019-01-10T05:48:11.846Z,0.90
2019-01-10T05:50:40.545Z,0.90
2019-01-10T05:53:08.936Z,0.90
2019-01-10T05:55:37.329Z,0.90
2019-01-10T05:58:05.938Z,0.90
2019-01-10T06:00:34.333Z,0.90
2019-01-10T06:03:02.724Z,0.90
2019-01-10T06:05:31.237Z,0.90
2019-01-10T06:08:00.282Z,1.00
2019-01-10T06:10:28.754Z,1.00
2019-01-10T06:12:58.867Z,1.00
2019-01-10T06:15:27.253Z,1.00
2019-01-10T06:17:55.682Z,1.00
2019-01-10T06:20:24.710Z,1.00
2019-01-10T06:22:53.099Z,1.00
2019-01-10T06:25:21.526Z,1.00
2019-01-10T06:27:49.909Z,1.00
2019-01-10T06:30:20.693Z,1.00
2019-01-10T06:32:49.093Z,1.00
2019-01-10T06:35:17.472Z,1.00
2019-01-10T06:37:45.869Z,1.00
2019-01-10T06:40:16.893Z,1.00
2019-01-10T06:42:45.353Z,1.00
2019-01-10T06:45:15.667Z,1.00
2019-01-10T06:47:44.120Z,1.00
2019-01-10T06:50:14.669Z,1.00
2019-01-10T06:52:43.124Z,1.00
2019-01-10T06:55:11.772Z,1.00
2019-01-10T06:57:41.301Z,0.90
2019-01-10T07:00:12.812Z,1.00
2019-01-10T07:02:41.212Z,1.00
2019-01-10T07:05:11.126Z,1.00
2019-01-10T07:07:39.779Z,0.90
2019-01-10T07:10:25.729Z,0.90
2019-01-10T07:12:54.149Z,0.90
2019-01-10T07:15:22.593Z,0.90
2019-01-10T07:17:51.055Z,0.90
2019-01-10T07:20:21.665Z,0.90
2019-01-10T07:22:51.988Z,0.90
2019-01-10T07:25:20.491Z,0.90
2019-01-10T07:27:48.901Z,0.80
2019-01-10T07:30:22.965Z,0.80
2019-01-10T07:32:51.436Z,0.80
2019-01-10T07:35:19.898Z,0.80
2019-01-10T07:37:53.297Z,0.80
2019-01-10T07:40:21.761Z,0.80
2019-01-10T07:42:50.226Z,0.90
2019-01-10T07:45:21.214Z,0.90
2019-01-10T07:47:49.991Z,0.90
2019-01-10T07:50:29.082Z,0.90
2019-01-10T07:52:57.539Z,0.90
2019-01-10T07:55:25.917Z,0.90
2019-01-10T07:57:54.361Z,1.00
2019-01-10T08:00:23.093Z,1.00
2019-01-10T08:02:51.562Z,1.00
2019-01-10T08:05:20.085Z,1.00
2019-01-10T08:07:48.489Z,1.00
2019-01-10T08:10:17.163Z,1.00
2019-01-10T08:12:45.784Z,1.00
2019-01-10T08:15:17.482Z,1.10
2019-01-10T08:17:45.950Z,1.10
2019-01-10T08:20:14.669Z,1.10
2019-01-10T08:22:43.269Z,1.20
2019-01-10T08:25:12.201Z,1.30
2019-01-10T08:27:40.597Z,1.30
2019-01-10T08:30:12.318Z,1.40
2019-01-10T08:32:40.714Z,1.40
2019-01-10T08:35:09.856Z,1.40
2019-01-10T08:37:38.249Z,1.40
2019-01-10T08:40:08.802Z,1.40
2019-01-10T08:42:37.242Z,1.50
2019-01-10T08:45:08.089Z,1.50
2019-01-10T08:47:36.573Z,1.50
2019-01-10T08:50:14.293Z,1.50
2019-01-10T08:52:42.698Z,1.60
2019-01-10T08:55:11.237Z,1.60
2019-01-10T08:57:39.665Z,1.60
2019-01-10T09:00:11.142Z,1.70
2019-01-10T09:02:39.546Z,1.70
2019-01-10T09:05:08.370Z,1.70
2019-01-10T09:07:36.809Z,1.70
2019-01-10T09:10:08.333Z,1.70
2019-01-10T09:12:36.741Z,1.80
2019-01-10T09:15:07.980Z,1.80
2019-01-10T09:17:36.370Z,1.80
2019-01-10T09:20:10.942Z,1.80
2019-01-10T09:22:39.338Z,1.80
2019-01-10T09:25:08.664Z,1.80
2019-01-10T09:27:37.083Z,1.80
2019-01-10T09:30:11.503Z,1.80
2019-01-10T09:32:39.913Z,1.80
2019-01-10T09:35:08.465Z,1.90
2019-01-10T09:37:38.136Z,1.90
2019-01-10T09:40:12.506Z,1.90
2019-01-10T09:42:40.985Z,1.90
2019-01-10T09:45:12.005Z,1.90
2019-01-10T09:47:40.418Z,1.90
2019-01-10T09:50:12.108Z,2.00
2019-01-10T09:52:40.564Z,2.00
2019-01-10T09:55:09.213Z,2.00
2019-01-10T09:57:37.639Z,2.00
2019-01-10T10:00:09.095Z,2.10
2019-01-10T10:02:37.533Z,2.10
2019-01-10T10:05:06.333Z,2.10
2019-01-10T10:07:34.708Z,2.20
2019-01-10T10:10:03.272Z,2.20
2019-01-10T10:12:31.665Z,2.20
2019-01-10T10:15:00.281Z,2.30
2019-01-10T10:17:28.686Z,2.30
2019-01-10T10:19:57.061Z,2.30
2019-01-10T10:22:25.473Z,2.30
2019-01-10T10:24:53.857Z,2.30
2019-01-10T10:27:22.246Z,2.30
2019-01-10T10:29:50.641Z,2.30
2019-01-10T10:32:19.056Z,2.30
2019-01-10T10:34:47.452Z,2.40
2019-01-10T10:37:15.857Z,2.40
2019-01-10T10:39:44.243Z,2.40
2019-01-10T10:42:12.633Z,2.40
2019-01-10T10:44:41.357Z,2.40
2019-01-10T10:47:09.748Z,2.40
2019-01-10T10:49:38.140Z,2.50
2019-01-10T10:52:06.946Z,2.50
2019-01-10T10:54:35.404Z,2.50
2019-01-10T10:57:03.929Z,2.50
2019-01-10T10:59:32.336Z,2.50
2019-01-10T11:02:00.730Z,2.50
2019-01-10T11:04:29.138Z,2.50
2019-01-10T11:06:57.539Z,2.50
2019-01-10T11:09:25.933Z,2.50
2019-01-10T11:11:54.326Z,2.50
2019-01-10T11:14:22.769Z,2.50
2019-01-10T11:16:51.162Z,2.50
2019-01-10T11:19:19.596Z,2.40
2019-01-10T11:21:47.989Z,2.40
2019-01-10T11:24:16.481Z,2.40
2019-01-10T11:26:45.077Z,2.40
2019-01-10T11:29:13.472Z,2.40
2019-01-10T11:31:41.862Z,2.50
2019-01-10T11:34:10.265Z,2.50
2019-01-10T11:36:38.657Z,2.50
2019-01-10T11:39:08.097Z,2.40
2019-01-10T11:41:38.392Z,2.40
2019-01-10T11:44:06.780Z,2.40
2019-01-10T11:46:35.268Z,2.40
2019-01-10T11:49:03.859Z,2.50
2019-01-10T11:51:32.258Z,2.50
2019-01-10T11:54:00.671Z,2.50
2019-01-10T11:56:29.060Z,2.60
2019-01-10T11:58:58.373Z,2.60
2019-01-10T12:01:29.070Z,2.60
2019-01-10T12:03:57.469Z,2.60
2019-01-10T12:06:25.865Z,2.60
2019-01-10T12:08:55.166Z,2.70
2019-01-10T12:11:23.573Z,2.70
2019-01-10T12:13:51.981Z,2.60
2019-01-10T12:16:28.309Z,2.60
2019-01-10T12:18:58.999Z,2.60
2019-01-10T12:21:20.809Z,2.60
2019-01-10T12:23:50.300Z,2.60
2019-01-10T12:26:18.799Z,2.70
2019-01-10T12:28:47.190Z,2.70
2019-01-10T12:31:16.194Z,2.70
2019-01-10T12:33:44.578Z,2.70
2019-01-10T12:36:12.966Z,2.70
2019-01-10T12:38:41.379Z,2.70
2019-01-10T12:41:10.005Z,2.70
2019-01-10T12:43:38.607Z,2.60
2019-01-10T12:46:06.993Z,2.60
2019-01-10T12:48:35.382Z,2.60
2019-01-10T12:51:03.852Z,2.70
2019-01-10T12:53:32.248Z,2.70
2019-01-10T12:56:01.090Z,2.70
2019-01-10T12:58:29.510Z,2.70
2019-01-10T13:00:57.901Z,2.60
2019-01-10T13:03:26.312Z,2.60
2019-01-10T13:05:54.721Z,2.60
2019-01-10T13:08:23.476Z,2.60
2019-01-10T13:10:51.873Z,2.60
2019-01-10T13:13:20.255Z,2.60
2019-01-10T13:15:48.660Z,2.60
2019-01-10T13:18:17.076Z,2.60
2019-01-10T13:20:45.492Z,2.60
2019-01-10T13:23:13.885Z,2.70
2019-01-10T13:25:42.503Z,2.70
2019-01-10T13:28:10.889Z,2.70
2019-01-10T13:30:39.269Z,2.60
2019-01-10T13:33:07.682Z,2.60
2019-01-10T13:35:36.469Z,2.50
2019-01-10T13:38:04.921Z,2.50
2019-01-10T13:40:33.309Z,2.50
2019-01-10T13:43:01.720Z,2.40
2019-01-10T13:45:30.184Z,2.40
2019-01-10T13:47:58.581Z,2.40
2019-01-10T13:50:27.796Z,2.30
2019-01-10T13:52:56.208Z,2.30
2019-01-10T13:55:24.611Z,2.30
2019-01-10T13:57:53.160Z,2.30
2019-01-10T14:00:24.263Z,2.30
2019-01-10T14:02:52.645Z,2.20
2019-01-10T14:05:21.049Z,2.20
2019-01-10T14:07:49.515Z,2.20
2019-01-10T14:10:18.965Z,2.20
2019-01-10T14:12:48.248Z,2.20
2019-01-10T14:15:20.627Z,2.20
2019-01-10T14:17:50.361Z,2.20
2019-01-10T14:20:18.815Z,2.20
2019-01-10T14:22:47.557Z,2.20
2019-01-10T14:25:16.120Z,2.20
2019-01-10T14:27:44.653Z,2.10
2019-01-10T14:30:19.076Z,2.10
2019-01-10T14:32:47.929Z,2.10
2019-01-10T14:35:16.356Z,2.10
2019-01-10T14:37:44.756Z,2.10
2019-01-10T14:40:13.402Z,2.10
2019-01-10T14:42:41.854Z,2.10
2019-01-10T14:45:13.101Z,2.10
2019-01-10T14:47:41.502Z,2.10
2019-01-10T14:50:11.144Z,2.10
2019-01-10T14:52:39.549Z,2.00
2019-01-10T14:55:10.870Z,2.00
2019-01-10T14:57:39.291Z,1.90
2019-01-10T15:00:13.189Z,1.90
2019-01-10T15:02:41.584Z,1.90
2019-01-10T15:05:10.142Z,1.90
2019-01-10T15:07:38.540Z,1.80
2019-01-10T15:10:08.880Z,1.80
2019-01-10T15:12:37.282Z,1.80
2019-01-10T15:15:08.798Z,1.70
2019-01-10T15:17:37.180Z,1.70
2019-01-10T15:20:08.644Z,1.70
2019-01-10T15:22:37.033Z,1.70
2019-01-10T15:25:05.860Z,1.60
2019-01-10T15:27:34.250Z,1.60
2019-01-10T15:32:31.056Z,1.60
2019-01-10T15:34:59.471Z,1.60
2019-01-10T15:37:27.856Z,1.50
2019-01-10T15:39:56.251Z,1.50
2019-01-10T15:42:24.648Z,1.50
2019-01-10T15:44:53.037Z,1.40
2019-01-10T15:47:21.433Z,1.40
2019-01-10T15:49:49.917Z,1.40
2019-01-10T15:52:18.382Z,1.40
2019-01-10T15:54:47.077Z,1.40
2019-01-10T15:57:15.460Z,1.40
2019-01-10T15:59:43.869Z,1.30
2019-01-10T16:02:12.273Z,1.30
2019-01-10T16:04:40.688Z,1.30
2019-01-10T16:07:09.072Z,1.30
2019-01-10T16:09:37.473Z,1.30
2019-01-10T16:12:05.957Z,1.30
2019-01-10T16:14:34.348Z,1.30
2019-01-10T16:17:02.731Z,1.30
2019-01-10T16:19:31.137Z,1.30
2019-01-10T16:21:59.528Z,1.30
2019-01-10T16:24:27.913Z,1.30
2019-01-10T16:26:56.300Z,1.30
2019-01-10T16:29:24.705Z,1.30
2019-01-10T16:31:53.498Z,1.30
2019-01-10T16:34:21.898Z,1.30
2019-01-10T16:36:50.284Z,1.30
2019-01-10T16:39:18.692Z,1.30
2019-01-10T16:41:47.085Z,1.30
2019-01-10T16:44:15.481Z,1.30
2019-01-10T16:46:43.865Z,1.30
2019-01-10T16:49:12.257Z,1.30
2019-01-10T16:51:40.652Z,1.30
2019-01-10T16:54:09.057Z,1.30
2019-01-10T16:56:37.437Z,1.30
2019-01-10T16:59:06.100Z,1.30
2019-01-10T17:01:34.487Z,1.30
2019-01-10T17:04:02.869Z,1.20
2019-01-10T17:06:31.269Z,1.30
2019-01-10T17:08:59.669Z,1.20
2019-01-10T17:11:28.074Z,1.20
2019-01-10T17:13:56.461Z,1.20
2019-01-10T17:16:24.844Z,1.30
2019-01-10T17:18:53.514Z,1.20
2019-01-10T17:21:22.169Z,1.20
2019-01-10T17:23:50.557Z,1.20
2019-01-10T17:26:18.946Z,1.20
2019-01-10T17:28:47.374Z,1.20
2019-01-10T17:31:15.960Z,1.20
2019-01-10T17:33:44.353Z,1.20
2019-01-10T17:36:18.315Z,1.20
2019-01-10T17:38:42.869Z,1.20
2019-01-10T17:41:11.281Z,1.20
2019-01-10T17:43:39.691Z,1.10
2019-01-10T17:46:08.149Z,1.10
2019-01-10T17:48:36.729Z,1.10
2019-01-10T17:51:10.874Z,1.10
2019-01-10T17:53:39.260Z,1.10
2019-01-10T17:56:07.658Z,1.10
2019-01-10T17:58:41.748Z,1.10
2019-01-10T18:01:10.144Z,1.10
2019-01-10T18:03:40.351Z,1.10
2019-01-10T18:06:08.863Z,1.10
2019-01-10T18:08:37.292Z,1.10
2019-01-10T18:11:05.858Z,1.10
2019-01-10T18:13:34.252Z,1.10
2019-01-10T18:16:02.669Z,1.10
2019-01-10T18:18:31.053Z,1.10
2019-01-10T18:20:59.433Z,1.10
2019-01-10T18:23:27.834Z,1.00
2019-01-10T18:25:56.661Z,1.10
2019-01-10T18:28:25.051Z,1.10
2019-01-10T18:30:53.461Z,1.10
2019-01-10T18:33:21.846Z,1.10
2019-01-10T18:35:50.224Z,1.10
2019-01-10T18:38:18.617Z,1.00
2019-01-10T18:40:47.021Z,1.00
2019-01-10T18:43:15.408Z,1.00
2019-01-10T18:45:43.816Z,1.00
2019-01-10T18:48:31.622Z,1.00
2019-01-10T18:51:00.098Z,1.00
2019-01-10T18:53:28.481Z,1.00
2019-01-10T18:55:56.881Z,1.00
2019-01-10T18:58:25.274Z,1.00
2019-01-10T19:00:53.657Z,0.90
2019-01-10T19:03:22.392Z,1.00
2019-01-10T19:05:50.776Z,1.00
2019-01-10T19:08:19.153Z,1.00
2019-01-10T19:10:47.623Z,1.00
2019-01-10T19:13:16.017Z,1.00
2019-01-10T19:15:44.388Z,1.00
2019-01-10T19:18:12.793Z,1.00
2019-01-10T19:20:41.189Z,1.00
2019-01-10T19:23:09.673Z,1.00
2019-01-10T19:25:38.385Z,1.00
2019-01-10T19:28:06.834Z,1.00
2019-01-10T19:30:35.240Z,0.90
2019-01-10T19:33:03.725Z,0.90
2019-01-10T19:35:32.115Z,0.90
2019-01-10T19:38:01.557Z,0.90
2019-01-10T19:40:33.394Z,0.90
2019-01-10T19:43:03.815Z,0.80
2019-01-10T19:45:32.612Z,0.80
2019-01-10T19:48:01.001Z,0.70
2019-01-10T19:50:29.398Z,0.70
2019-01-10T19:52:57.853Z,0.70
2019-01-10T19:55:26.833Z,0.60
2019-01-10T19:57:55.227Z,0.60
2019-01-10T20:00:31.948Z,0.50
2019-01-10T20:03:00.609Z,0.50
2019-01-10T20:05:28.997Z,0.50
2019-01-10T20:07:57.389Z,0.40
2019-01-10T20:10:28.692Z,0.40
2019-01-10T20:12:57.145Z,0.30
2019-01-10T20:15:25.549Z,0.30
2019-01-10T20:17:54.236Z,0.30
2019-01-10T20:20:31.230Z,0.20
2019-01-10T20:23:00.093Z,0.20
2019-01-10T20:25:28.490Z,0.10
2019-01-10T20:27:56.873Z,0.10
2019-01-10T20:30:25.260Z,0.10
2019-01-10T20:32:53.733Z,0.00
2019-01-10T20:35:22.271Z,0.00
2019-01-10T20:37:50.678Z,0.00
2019-01-10T20:40:19.518Z,0.00
2019-01-10T20:42:47.908Z,0.00
2019-01-10T20:45:16.626Z,0.00
2019-01-10T20:47:45.093Z,0.00
2019-01-10T20:50:15.605Z,0.10
2019-01-10T20:52:43.990Z,0.10
2019-01-10T20:55:17.708Z,0.10
2019-01-10T20:57:46.164Z,0.00
2019-01-10T21:00:22.871Z,0.00
2019-01-10T21:02:51.465Z,0.00
2019-01-10T21:05:19.922Z,0.00
2019-01-10T21:07:49.648Z,0.10
2019-01-10T21:10:19.760Z,0.10
2019-01-10T21:12:48.230Z,0.10
2019-01-10T21:15:22.204Z,0.20
2019-01-10T21:17:50.582Z,0.20
2019-01-10T21:20:19.048Z,0.20
2019-01-10T21:22:49.204Z,0.20
2019-01-10T21:25:17.735Z,0.20
2019-01-10T21:27:46.253Z,0.10
2019-01-10T21:30:20.567Z,0.10
2019-01-10T21:32:49.711Z,0.10
2019-01-10T21:35:18.630Z,0.10
2019-01-10T21:37:47.400Z,0.10
2019-01-10T21:40:17.828Z,0.10
2019-01-10T21:42:46.385Z,0.20
2019-01-10T21:45:17.638Z,0.20
2019-01-10T21:47:46.115Z,0.20
2019-01-10T21:50:17.702Z,0.20
2019-01-10T21:52:46.152Z,0.20
2019-01-10T21:55:15.092Z,0.20
2019-01-10T21:57:43.564Z,0.20
2019-01-10T22:00:15.269Z,0.20
2019-01-10T22:02:43.668Z,0.20
2019-01-10T22:05:12.070Z,0.10
2019-01-10T22:07:40.448Z,0.10
2019-01-10T22:10:11.185Z,0.10
2019-01-10T22:12:39.577Z,0.00
2019-01-10T22:15:16.466Z,0.00
2019-01-10T22:17:45.559Z,-0.10
2019-01-10T22:20:19.637Z,-0.20
2019-01-10T22:22:48.547Z,-0.20
2019-01-10T22:25:17.288Z,-0.30
2019-01-10T22:27:45.793Z,-0.40
2019-01-10T22:30:19.653Z,-0.50
2019-01-10T22:32:48.517Z,-0.60
2019-01-10T22:35:18.645Z,-0.70
2019-01-10T22:37:47.134Z,-0.90
2019-01-10T22:40:17.657Z,-1.00
2019-01-10T22:42:46.116Z,-1.10
2019-01-10T22:45:16.056Z,-1.30
2019-01-10T22:47:44.446Z,-1.30
2019-01-10T22:50:15.714Z,-1.40
2019-01-10T22:52:44.169Z,-1.40
2019-01-10T22:55:13.913Z,-1.50
2019-01-10T22:57:42.380Z,-1.60
2019-01-10T23:00:30.568Z,-1.70
2019-01-10T23:03:06.450Z,-1.80
2019-01-10T23:05:39.544Z,-1.80
2019-01-10T23:08:07.998Z,-1.90
2019-01-10T23:10:36.406Z,-1.90
2019-01-10T23:13:04.819Z,-2.00
2019-01-10T23:15:34.100Z,-2.10
2019-01-10T23:18:02.966Z,-2.10
2019-01-10T23:20:31.657Z,-2.20
2019-01-10T23:23:02.109Z,-2.30
2019-01-10T23:25:30.644Z,-2.30
2019-01-10T23:27:59.130Z,-2.30
2019-01-10T23:30:53.352Z,-2.40
2019-01-10T23:33:23.156Z,-2.40
2019-01-10T23:36:00.054Z,-2.50
2019-01-10T23:38:28.672Z,-2.50
2019-01-10T23:40:57.428Z,-2.60
2019-01-10T23:43:25.820Z,-2.60
2019-01-10T23:45:54.278Z,-2.60
2019-01-10T23:48:23.148Z,-2.70
2019-01-10T23:50:51.629Z,-2.70
2019-01-10T23:53:20.097Z,-2.70
2019-01-10T23:55:48.478Z,-2.60
2019-01-10T23:58:17.145Z,-2.50
